Terminal Aerodrome Forecast
Issued by NWS

Home | Current Version | Previous Version | Text Only | Print | Product List | Glossary On
Versions: 1 2 3 4 5 6 7 8 9 10 11 12 13 14 15 16 17 18 19 20 21
000
FTUS46 KMFR 262340
TAFOTH
TAF
KOTH 262340Z 2700/2724 22005KT P6SM OVC020
     FM270400 20004KT P6SM SCT020 BKN035
     FM270600 12003KT P6SM SCT010
     FM271100 13004KT 1SM BR OVC005
     FM271800 29006KT P6SM SKC=

USA.gov is the U.S. government's official web portal to all federal, state and local government web resources and services.